Time;durP1;ratioP1;P1;durP2;ratioP2;P2;SDS_P1;SDS_P2;PMS_P1;PMS_P2;Temp;Humidity;BMP_temperature;BMP_pressure;BME280_temperature;BME280_humidity;BME280_pressure;Samples;Min_cycle;Max_cycle;Signal;HPM_P1;HPM_P2
2023/11/07 00:00:06;;;;;;;7.65;3.03;;;9.00;99.90;;;;;;5032668;28;20037;-69
2023/11/07 00:02:32;;;;;;;8.07;3.17;;;9.00;99.90;;;;;;5029429;28;20037;-69
2023/11/07 00:04:58;;;;;;;5.63;2.25;;;8.90;99.90;;;;;;5025076;28;20045;-69
2023/11/07 00:07:24;;;;;;;8.20;3.08;;;9.00;99.90;;;;;;5027547;28;20030;-70
2023/11/07 00:09:50;;;;;;;3.95;2.35;;;9.00;99.90;;;;;;5027918;28;20035;-69
2023/11/07 00:12:17;;;;;;;4.72;2.70;;;8.90;99.90;;;;;;5021532;28;20038;-70
2023/11/07 00:14:43;;;;;;;5.82;2.67;;;9.00;99.90;;;;;;5029381;28;20794;-69
2023/11/07 00:17:09;;;;;;;7.07;3.05;;;9.00;99.90;;;;;;5023010;28;20038;-69
2023/11/07 00:19:35;;;;;;;8.65;3.00;;;9.00;99.90;;;;;;5026619;28;20440;-70
2023/11/07 00:22:01;;;;;;;7.73;2.93;;;9.10;99.90;;;;;;5017386;28;20030;-69
2023/11/07 00:24:26;;;;;;;4.33;2.23;;;9.10;99.90;;;;;;5032247;28;20116;-70
2023/11/07 00:26:53;;;;;;;5.50;2.60;;;9.10;99.90;;;;;;5027716;28;20108;-70
2023/11/07 00:29:21;;;;;;;;;;;9.10;99.90;;;;;;5024559;28;20079;-70
2023/11/07 00:31:47;;;;;;;6.28;2.80;;;9.00;99.90;;;;;;5025957;28;19912;-70
2023/11/07 00:34:16;;;;;;;7.68;2.25;;;8.90;99.90;;;;;;5024664;28;20103;-69
2023/11/07 00:36:46;;;;;;;6.75;2.42;;;9.00;99.90;;;;;;5026489;28;20038;-70
2023/11/07 00:39:18;;;;;;;7.72;2.80;;;9.10;99.90;;;;;;5025232;28;20029;-70
2023/11/07 00:41:44;;;;;;;4.45;2.28;;;9.10;99.90;;;;;;5027642;28;20496;-70
2023/11/07 00:44:09;;;;;;;5.60;2.43;;;9.10;99.90;;;;;;5026704;28;20048;-69
2023/11/07 00:46:35;;;;;;;5.93;2.78;;;9.10;99.90;;;;;;5023128;28;20172;-70
2023/11/07 00:49:01;;;;;;;6.80;2.83;;;9.10;99.90;;;;;;5030002;28;20056;-68
2023/11/07 00:51:26;;;;;;;4.80;2.30;;;9.10;99.90;;;;;;5026730;28;20797;-68
2023/11/07 00:53:52;;;;;;;5.33;2.23;;;9.00;99.90;;;;;;5035002;28;20028;-68
2023/11/07 00:56:18;;;;;;;5.55;2.67;;;9.00;99.90;;;;;;5028682;28;20044;-69
2023/11/07 00:58:44;;;;;;;16.30;2.95;;;8.90;99.90;;;;;;5032299;28;20051;-68
2023/11/07 01:01:10;;;;;;;4.17;2.20;;;8.90;99.90;;;;;;5032176;28;20026;-68
2023/11/07 01:03:35;;;;;;;4.47;2.53;;;8.90;99.90;;;;;;5034116;28;20791;-67
2023/11/07 01:06:01;;;;;;;3.70;2.33;;;8.90;99.90;;;;;;5031219;28;20104;-68
2023/11/07 01:08:27;;;;;;;4.30;2.60;;;8.90;99.90;;;;;;5031934;28;20029;-70
2023/11/07 01:10:53;;;;;;;4.20;2.30;;;8.90;99.90;;;;;;5030019;28;20513;-68
2023/11/07 01:13:19;;;;;;;7.38;1.88;;;8.90;99.90;;;;;;5030406;28;20033;-69
2023/11/07 01:15:45;;;;;;;4.33;2.27;;;8.80;99.90;;;;;;5028658;28;20041;-69
2023/11/07 01:18:11;;;;;;;10.63;2.85;;;8.90;99.90;;;;;;5044525;28;20548;-68
2023/11/07 01:20:37;;;;;;;6.97;2.22;;;8.80;99.90;;;;;;5029607;28;20057;-69
2023/11/07 01:23:03;;;;;;;7.97;2.73;;;8.80;99.90;;;;;;5035753;28;20026;-69
2023/11/07 01:25:29;;;;;;;5.93;2.47;;;8.80;99.90;;;;;;5025736;28;20056;-69
2023/11/07 01:27:55;;;;;;;7.03;2.92;;;8.80;99.90;;;;;;5027754;28;20274;-70
2023/11/07 01:30:21;;;;;;;10.10;2.53;;;8.80;99.90;;;;;;5023091;28;20042;-70
2023/11/07 01:32:49;;;;;;;;;;;8.90;99.90;;;;;;5025332;28;20018;-69
2023/11/07 01:35:15;;;;;;;;;;;8.90;99.90;;;;;;5023781;28;19913;-69
2023/11/07 01:37:41;;;;;;;6.07;2.83;;;8.80;99.90;;;;;;5024827;28;19916;-69
2023/11/07 01:40:09;;;;;;;5.90;2.63;;;8.70;99.90;;;;;;5027591;28;20033;-70
2023/11/07 01:42:45;;;;;;;5.93;2.78;;;8.70;99.90;;;;;;5020643;28;20067;-70
2023/11/07 01:45:13;;;;;;;8.13;2.10;;;8.90;99.90;;;;;;5031394;28;20037;-68
2023/11/07 01:47:43;;;;;;;5.68;2.20;;;8.90;99.90;;;;;;5027299;28;20132;-68
2023/11/07 01:50:10;;;;;;;12.65;2.63;;;9.00;99.90;;;;;;5032076;28;20502;-70
2023/11/07 01:52:37;;;;;;;8.85;2.30;;;8.90;99.90;;;;;;5025776;28;20029;-67
2023/11/07 01:55:07;;;;;;;6.97;2.55;;;9.00;99.90;;;;;;5026727;28;20048;-70
2023/11/07 01:57:34;;;;;;;6.78;2.22;;;9.00;99.90;;;;;;5020776;28;20034;-69
2023/11/07 02:00:00;;;;;;;8.50;2.65;;;9.00;99.90;;;;;;5031747;28;20349;-68
2023/11/07 02:02:27;;;;;;;8.25;2.42;;;9.10;99.90;;;;;;5024333;28;20037;-69
2023/11/07 02:04:53;;;;;;;9.05;2.55;;;9.00;99.90;;;;;;5028029;28;20036;-69
2023/11/07 02:07:19;;;;;;;4.13;1.88;;;9.00;99.90;;;;;;5029943;28;20527;-68
2023/11/07 02:09:45;;;;;;;9.33;2.33;;;8.90;99.90;;;;;;5029608;28;20052;-69
2023/11/07 02:12:11;;;;;;;;;;;9.00;99.90;;;;;;5030221;28;20375;-69
2023/11/07 02:14:37;;;;;;;7.68;2.78;;;9.00;99.90;;;;;;5031896;28;20019;-68
2023/11/07 02:17:05;;;;;;;8.10;2.13;;;8.90;99.90;;;;;;5027603;28;20060;-70
2023/11/07 02:19:32;;;;;;;5.53;2.45;;;8.80;99.90;;;;;;5031689;28;20029;-71
2023/11/07 02:22:01;;;;;;;7.50;2.47;;;8.80;99.90;;;;;;5028149;28;20025;-68
2023/11/07 02:24:28;;;;;;;7.93;2.38;;;8.80;99.90;;;;;;5025926;28;20038;-70
2023/11/07 02:26:55;;;;;;;20.50;4.68;;;8.80;99.90;;;;;;5027239;28;20033;-69
2023/11/07 02:29:21;;;;;;;5.88;2.25;;;8.70;99.90;;;;;;5025970;28;20556;-68
2023/11/07 02:31:48;;;;;;;6.00;2.55;;;8.70;99.90;;;;;;5026463;28;20030;-69
2023/11/07 02:34:13;;;;;;;9.82;2.33;;;8.70;99.90;;;;;;5031570;28;20029;-70
2023/11/07 02:36:39;;;;;;;6.67;1.80;;;8.70;99.90;;;;;;5025551;28;20033;-69
2023/11/07 02:39:08;;;;;;;4.15;2.22;;;8.70;99.90;;;;;;5027411;28;20034;-69
2023/11/07 02:41:34;;;;;;;5.65;1.80;;;8.60;99.90;;;;;;5027821;28;20128;-69
2023/11/07 02:44:00;;;;;;;6.05;2.45;;;8.60;99.90;;;;;;5031753;28;20029;-69
2023/11/07 02:46:26;;;;;;;3.80;2.25;;;8.50;99.90;;;;;;5041464;28;20581;-68
2023/11/07 02:48:52;;;;;;;3.75;2.10;;;8.40;99.90;;;;;;5028495;28;20029;-69
2023/11/07 02:51:18;;;;;;;6.75;2.05;;;8.40;99.90;;;;;;5026515;28;20269;-69
2023/11/07 02:53:47;;;;;;;5.25;2.35;;;8.50;99.90;;;;;;5032103;28;20025;-68
2023/11/07 02:56:13;;;;;;;8.45;1.92;;;8.60;99.90;;;;;;5025803;28;20042;-69
2023/11/07 02:58:39;;;;;;;9.30;2.80;;;8.50;99.90;;;;;;5033408;28;20062;-68
2023/11/07 03:01:06;;;;;;;3.92;2.10;;;8.50;99.90;;;;;;5025878;28;20041;-69
2023/11/07 03:03:32;;;;;;;6.32;1.70;;;8.50;99.90;;;;;;5029757;28;20038;-68
2023/11/07 03:05:58;;;;;;;8.02;2.97;;;8.40;99.90;;;;;;5025134;28;20049;-69
2023/11/07 03:08:23;;;;;;;4.28;2.20;;;8.40;99.90;;;;;;5030720;28;20032;-67
2023/11/07 03:10:49;;;;;;;12.83;3.10;;;8.30;99.90;;;;;;5027868;28;20036;-67
2023/11/07 03:13:15;;;;;;;5.87;1.97;;;8.20;99.90;;;;;;5027416;28;20117;-69
2023/11/07 03:15:40;;;;;;;4.70;1.90;;;8.20;99.90;;;;;;5027938;28;20037;-69
2023/11/07 03:18:06;;;;;;;4.27;2.10;;;8.20;99.90;;;;;;5027310;28;20033;-69
2023/11/07 03:20:32;;;;;;;6.47;2.30;;;8.30;99.90;;;;;;5024280;28;20502;-69
2023/11/07 03:22:58;;;;;;;9.52;2.22;;;8.40;99.90;;;;;;5026588;28;20026;-68
2023/11/07 03:25:25;;;;;;;7.18;1.90;;;8.40;99.90;;;;;;5024620;28;20081;-71
2023/11/07 03:27:51;;;;;;;6.10;2.45;;;8.40;99.90;;;;;;5034009;28;20112;-68
2023/11/07 03:30:17;;;;;;;4.38;2.00;;;8.40;99.90;;;;;;5024638;28;20033;-69
2023/11/07 03:32:43;;;;;;;4.87;2.07;;;8.40;99.90;;;;;;5027716;28;20381;-69
2023/11/07 03:35:09;;;;;;;4.88;1.90;;;8.30;99.90;;;;;;5025551;28;20493;-70
2023/11/07 03:37:34;;;;;;;5.23;2.20;;;8.40;99.90;;;;;;5024002;28;20033;-69
2023/11/07 03:40:00;;;;;;;5.67;2.00;;;8.30;99.90;;;;;;5022473;28;20371;-69
2023/11/07 03:42:26;;;;;;;8.07;1.90;;;8.40;99.90;;;;;;5030198;28;20795;-67
2023/11/07 03:44:51;;;;;;;6.73;2.60;;;8.40;99.90;;;;;;5024371;28;20037;-67
2023/11/07 03:47:17;;;;;;;3.73;2.03;;;8.30;99.90;;;;;;5032660;28;20087;-68
2023/11/07 03:49:43;;;;;;;5.65;1.52;;;8.30;99.90;;;;;;5024981;28;20037;-67
2023/11/07 03:52:10;;;;;;;4.97;1.95;;;8.20;99.90;;;;;;5030025;28;20463;-66
2023/11/07 03:54:35;;;;;;;3.75;2.05;;;8.20;99.90;;;;;;5028056;28;20048;-67
2023/11/07 03:57:03;;;;;;;5.17;2.10;;;8.10;99.90;;;;;;5029922;28;20029;-67
2023/11/07 03:59:29;;;;;;;3.75;1.23;;;8.10;99.90;;;;;;5023939;28;20092;-66
2023/11/07 04:01:55;;;;;;;4.80;1.58;;;8.20;99.90;;;;;;5031099;28;20068;-69
2023/11/07 04:04:21;;;;;;;5.72;2.67;;;8.30;99.90;;;;;;5019127;28;20042;-69
2023/11/07 04:06:48;;;;;;;4.07;1.83;;;8.20;99.90;;;;;;5027411;28;20026;-68
2023/11/07 04:09:14;;;;;;;4.40;1.88;;;8.20;99.90;;;;;;5027032;28;20365;-68
2023/11/07 04:11:40;;;;;;;5.93;2.20;;;8.20;99.90;;;;;;5027355;28;20040;-67
2023/11/07 04:14:05;;;;;;;5.82;2.10;;;8.20;99.90;;;;;;5029383;28;20038;-68
2023/11/07 04:16:32;;;;;;;4.93;1.90;;;8.20;99.90;;;;;;5024805;28;20025;-68
2023/11/07 04:18:59;;;;;;;5.47;2.40;;;8.20;99.90;;;;;;5028006;28;20525;-67
2023/11/07 04:21:24;;;;;;;3.30;1.80;;;8.10;99.90;;;;;;5027716;28;20033;-69
2023/11/07 04:23:50;;;;;;;4.50;1.77;;;8.00;99.90;;;;;;5025901;28;20386;-68
2023/11/07 04:26:16;;;;;;;5.20;2.30;;;8.00;99.90;;;;;;5036231;28;20049;-68
2023/11/07 04:28:42;;;;;;;3.38;2.10;;;7.90;99.90;;;;;;5028720;28;20028;-68
2023/11/07 04:31:08;;;;;;;4.57;1.63;;;7.90;99.90;;;;;;5030659;28;20049;-69
2023/11/07 04:33:33;;;;;;;6.17;1.67;;;7.90;99.90;;;;;;5031964;28;20612;-69
2023/11/07 04:36:00;;;;;;;2.30;1.57;;;7.90;99.90;;;;;;5031682;28;20144;-69
2023/11/07 04:38:26;;;;;;;7.57;2.05;;;8.00;99.90;;;;;;5026628;28;20108;-70
2023/11/07 04:40:51;;;;;;;9.33;2.30;;;8.00;99.90;;;;;;5029538;28;20138;-67
2023/11/07 04:43:17;;;;;;;3.37;1.40;;;8.00;99.90;;;;;;5028721;28;20040;-69
2023/11/07 04:45:43;;;;;;;2.90;1.60;;;8.10;99.90;;;;;;5032822;28;20039;-69
2023/11/07 04:48:10;;;;;;;4.03;1.90;;;8.00;99.90;;;;;;5028532;28;20037;-69
2023/11/07 04:50:37;;;;;;;2.45;1.70;;;8.10;99.90;;;;;;5033251;28;20121;-70
2023/11/07 04:53:04;;;;;;;4.72;2.10;;;8.10;99.90;;;;;;5031368;28;20038;-67
2023/11/07 04:55:31;;;;;;;3.00;1.65;;;8.00;99.90;;;;;;5028665;28;20121;-69
2023/11/07 04:57:57;;;;;;;5.97;2.08;;;8.00;99.90;;;;;;5042354;28;20111;-69
2023/11/07 05:00:23;;;;;;;3.35;1.55;;;8.10;99.90;;;;;;5028127;28;20044;-67
2023/11/07 05:02:50;;;;;;;5.30;1.88;;;8.10;99.90;;;;;;5032319;28;20029;-68
2023/11/07 05:05:15;;;;;;;2.33;1.77;;;8.20;99.90;;;;;;5027817;28;20548;-68
2023/11/07 05:07:41;;;;;;;4.77;1.60;;;8.30;99.90;;;;;;5024938;28;20044;-68
2023/11/07 05:10:11;;;;;;;4.33;1.80;;;8.40;99.90;;;;;;5033009;28;20112;-70
2023/11/07 05:12:38;;;;;;;2.50;1.60;;;8.40;99.90;;;;;;5035634;28;20037;-69
2023/11/07 05:15:04;;;;;;;3.72;1.65;;;8.50;99.90;;;;;;5026788;28;20087;-69
2023/11/07 05:17:30;;;;;;;6.57;1.80;;;8.50;99.90;;;;;;5027688;28;20033;-69
2023/11/07 05:19:56;;;;;;;4.47;1.83;;;8.50;99.90;;;;;;5032975;28;20462;-68
2023/11/07 05:22:21;;;;;;;2.03;1.30;;;8.50;99.90;;;;;;5025855;28;20042;-67
2023/11/07 05:24:47;;;;;;;4.20;1.80;;;8.50;99.90;;;;;;5033802;28;20530;-67
2023/11/07 05:27:13;;;;;;;2.87;1.67;;;8.50;99.90;;;;;;5029207;28;20300;-68
2023/11/07 05:29:40;;;;;;;7.35;2.50;;;8.50;99.90;;;;;;5030269;28;20473;-68
2023/11/07 05:32:05;;;;;;;3.47;1.70;;;8.60;99.90;;;;;;5031920;28;20108;-67
2023/11/07 05:34:31;;;;;;;4.95;1.90;;;8.70;99.90;;;;;;5027820;28;20461;-67
2023/11/07 05:36:57;;;;;;;4.77;1.70;;;8.70;99.90;;;;;;5031245;28;20029;-68
2023/11/07 05:39:27;;;;;;;3.03;1.83;;;8.70;99.90;;;;;;5030115;28;20033;-68
2023/11/07 05:41:54;;;;;;;8.38;2.00;;;8.70;99.90;;;;;;5028762;28;20051;-68
2023/11/07 05:44:19;;;;;;;3.50;1.75;;;8.60;99.90;;;;;;5028267;28;20036;-69
2023/11/07 05:46:45;;;;;;;5.13;1.50;;;8.60;99.90;;;;;;5025627;28;20034;-68
2023/11/07 05:49:11;;;;;;;2.43;1.67;;;8.60;99.90;;;;;;5025537;28;20083;-68
2023/11/07 05:51:38;;;;;;;3.78;1.85;;;8.60;99.90;;;;;;5019120;28;20036;-68
2023/11/07 05:54:04;;;;;;;5.85;1.70;;;8.60;99.90;;;;;;5030443;28;20061;-68
2023/11/07 05:56:30;;;;;;;4.28;1.58;;;8.70;99.90;;;;;;5025647;28;20030;-67
2023/11/07 05:58:55;;;;;;;6.90;1.90;;;8.70;99.90;;;;;;5029222;28;20036;-68
2023/11/07 06:01:21;;;;;;;5.07;1.80;;;8.70;99.90;;;;;;5026389;28;20521;-67
2023/11/07 06:03:50;;;;;;;4.03;2.03;;;8.70;99.90;;;;;;5018859;28;20488;-68
2023/11/07 06:06:15;;;;;;;2.92;1.50;;;8.70;99.90;;;;;;5017959;28;20041;-68
2023/11/07 06:08:41;;;;;;;5.37;1.67;;;8.80;99.90;;;;;;5025467;28;20402;-68
2023/11/07 06:11:06;;;;;;;5.30;2.20;;;8.80;99.90;;;;;;5023020;28;20038;-68
2023/11/07 06:13:32;;;;;;;4.93;1.80;;;8.70;99.90;;;;;;5022254;28;20030;-69
2023/11/07 06:15:58;;;;;;;4.78;1.98;;;8.80;99.90;;;;;;5030631;28;20044;-69
2023/11/07 06:18:24;;;;;;;3.83;1.97;;;8.80;99.90;;;;;;5021111;28;20022;-69
2023/11/07 06:20:49;;;;;;;2.95;1.80;;;8.90;99.90;;;;;;5021695;28;20074;-68
2023/11/07 06:23:15;;;;;;;9.70;1.90;;;8.90;99.90;;;;;;5028957;28;20041;-69
2023/11/07 06:25:41;;;;;;;4.13;1.77;;;8.90;99.90;;;;;;5016416;28;20045;-67
2023/11/07 06:28:08;;;;;;;15.57;2.80;;;8.90;99.90;;;;;;5026700;28;20057;-68
2023/11/07 06:30:34;;;;;;;3.83;1.60;;;8.80;99.90;;;;;;5020002;28;20501;-68
2023/11/07 06:33:00;;;;;;;6.18;2.00;;;8.80;99.90;;;;;;5025984;28;20021;-68
2023/11/07 06:35:26;;;;;;;2.83;1.60;;;8.80;99.90;;;;;;5027800;28;20037;-68
2023/11/07 06:37:51;;;;;;;4.70;1.80;;;8.80;99.90;;;;;;5018023;28;20026;-68
2023/11/07 06:40:18;;;;;;;3.27;1.77;;;8.90;99.90;;;;;;5025444;28;20021;-68
2023/11/07 06:42:45;;;;;;;5.97;1.85;;;8.90;99.90;;;;;;5023110;28;20033;-68
2023/11/07 06:45:12;;;;;;;2.83;1.65;;;8.80;99.90;;;;;;5016986;28;20500;-68
2023/11/07 06:47:45;;;;;;;9.00;1.77;;;8.80;99.90;;;;;;5022618;28;20030;-68
2023/11/07 06:50:14;;;;;;;8.77;1.80;;;8.80;99.90;;;;;;5020490;28;20493;-68
2023/11/07 06:52:42;;;;;;;6.53;2.00;;;8.90;99.90;;;;;;5019846;28;20552;-68
2023/11/07 06:55:12;;;;;;;3.50;1.70;;;8.90;99.90;;;;;;5020510;28;20528;-68
2023/11/07 06:57:38;;;;;;;3.38;1.83;;;8.90;99.90;;;;;;5021863;28;20026;-69
2023/11/07 07:00:05;;;;;;;5.38;1.80;;;9.00;99.90;;;;;;5027212;28;20037;-68
2023/11/07 07:02:35;;;;;;;4.32;1.98;;;9.00;99.90;;;;;;5025252;28;21236;-68
2023/11/07 07:05:03;;;;;;;3.63;1.73;;;9.00;99.90;;;;;;5024888;28;20041;-68
2023/11/07 07:07:30;;;;;;;2.95;1.65;;;9.00;99.90;;;;;;5022640;28;20098;-68
2023/11/07 07:09:55;;;;;;;3.45;1.70;;;9.00;99.90;;;;;;5024379;28;20025;-68
2023/11/07 07:12:21;;;;;;;5.47;2.00;;;9.10;99.90;;;;;;5028138;28;20617;-69
2023/11/07 07:14:48;;;;;;;4.30;1.57;;;9.20;99.90;;;;;;5022855;28;20024;-68
2023/11/07 07:17:16;;;;;;;5.28;1.58;;;9.30;99.90;;;;;;5021499;28;20044;-69
2023/11/07 07:19:41;;;;;;;2.40;1.70;;;9.30;99.90;;;;;;5028032;28;20091;-70
2023/11/07 07:22:07;;;;;;;11.50;2.27;;;9.30;99.90;;;;;;5021245;28;20053;-69
2023/11/07 07:24:33;;;;;;;4.83;1.63;;;9.30;99.90;;;;;;5016303;28;20029;-69
2023/11/07 07:26:58;;;;;;;5.22;2.15;;;9.20;99.90;;;;;;5026935;28;20761;-70
2023/11/07 07:29:27;;;;;;;3.17;1.70;;;9.30;99.90;;;;;;5017278;28;20029;-71
2023/11/07 07:31:53;;;;;;;9.68;2.45;;;9.30;99.90;;;;;;5028125;28;20048;-69
2023/11/07 07:34:20;;;;;;;2.67;1.58;;;9.40;99.90;;;;;;5023683;28;20525;-68
2023/11/07 07:36:47;;;;;;;5.97;2.20;;;9.50;99.90;;;;;;5018168;28;20041;-68
2023/11/07 07:39:27;;;;;;;4.22;1.77;;;9.50;99.90;;;;;;5023321;28;20293;-69
2023/11/07 07:41:57;;;;;;;4.00;1.65;;;9.50;99.90;;;;;;5022435;28;20048;-68
2023/11/07 07:44:25;;;;;;;5.00;1.88;;;9.60;99.90;;;;;;5027514;28;20030;-68
2023/11/07 07:46:52;;;;;;;4.85;2.13;;;9.70;99.90;;;;;;5022511;28;20568;-68
2023/11/07 07:49:22;;;;;;;6.43;2.00;;;9.70;99.90;;;;;;5023261;28;20044;-68
2023/11/07 07:51:54;;;;;;;5.72;1.70;;;9.70;99.90;;;;;;5022603;28;20064;-68
2023/11/07 07:54:23;;;;;;;6.88;2.08;;;9.70;99.90;;;;;;5021588;28;20029;-68
2023/11/07 07:56:50;;;;;;;3.17;1.77;;;9.80;99.90;;;;;;5019556;28;20038;-67
2023/11/07 07:59:15;;;;;;;5.55;1.63;;;9.80;99.90;;;;;;5020717;28;20120;-68
2023/11/07 08:01:41;;;;;;;5.00;1.77;;;9.90;99.90;;;;;;5021055;28;20116;-68
2023/11/07 08:04:07;;;;;;;8.70;2.23;;;9.90;99.90;;;;;;5019773;28;20040;-68
2023/11/07 08:06:32;;;;;;;5.00;1.97;;;10.00;99.90;;;;;;5015933;28;20033;-68
2023/11/07 08:08:59;;;;;;;4.60;1.67;;;10.00;99.90;;;;;;5025261;28;20033;-67
2023/11/07 08:11:25;;;;;;;4.55;1.80;;;10.00;99.90;;;;;;5025872;28;20030;-68
2023/11/07 08:13:51;;;;;;;5.78;2.10;;;10.10;99.90;;;;;;5024450;28;20104;-68
2023/11/07 08:16:16;;;;;;;3.93;2.23;;;10.20;99.90;;;;;;5028779;28;20108;-68
2023/11/07 08:18:43;;;;;;;7.33;1.93;;;10.20;99.90;;;;;;5019894;28;20072;-68
2023/11/07 08:21:08;;;;;;;3.40;2.15;;;10.30;99.90;;;;;;5018892;28;20055;-67
2023/11/07 08:23:34;;;;;;;6.73;2.73;;;10.30;99.90;;;;;;5025482;28;20037;-67
2023/11/07 08:26:00;;;;;;;5.13;1.67;;;10.30;99.90;;;;;;5018553;28;20049;-67
2023/11/07 08:28:28;;;;;;;3.97;1.97;;;10.30;99.90;;;;;;5021148;28;20052;-68
2023/11/07 08:30:54;;;;;;;4.97;2.38;;;10.40;99.90;;;;;;5021152;28;20029;-68
2023/11/07 08:33:19;;;;;;;3.78;1.90;;;10.50;99.90;;;;;;5017975;28;20091;-68
2023/11/07 08:35:46;;;;;;;4.10;1.90;;;10.60;99.90;;;;;;5022208;28;20042;-68
2023/11/07 08:38:12;;;;;;;7.28;2.00;;;10.70;99.90;;;;;;5022324;28;20068;-68
2023/11/07 08:40:38;;;;;;;5.17;1.70;;;10.80;99.90;;;;;;5019274;28;20038;-67
2023/11/07 08:43:04;;;;;;;5.97;1.95;;;10.80;99.90;;;;;;5015677;28;20112;-69
2023/11/07 08:45:32;;;;;;;7.80;2.22;;;10.90;99.90;;;;;;5024378;28;20102;-68
2023/11/07 08:47:58;;;;;;;2.40;1.60;;;10.90;99.90;;;;;;5022357;28;20400;-68
2023/11/07 08:50:25;;;;;;;3.27;1.83;;;10.80;99.90;;;;;;5016377;28;20042;-67
2023/11/07 08:52:51;;;;;;;4.35;2.05;;;10.70;99.90;;;;;;5019540;28;20279;-68
2023/11/07 08:55:18;;;;;;;5.93;2.13;;;10.70;99.90;;;;;;5015110;28;20404;-67
2023/11/07 08:57:47;;;;;;;5.38;1.52;;;10.70;99.90;;;;;;5020701;28;20424;-67
2023/11/07 09:00:21;;;;;;;6.50;1.65;;;10.70;99.90;;;;;;5016967;28;20042;-67
2023/11/07 09:02:48;;;;;;;7.22;1.50;;;10.60;99.90;;;;;;5023721;28;20069;-67
2023/11/07 09:05:14;;;;;;;4.82;1.48;;;10.60;99.90;;;;;;5020390;28;20042;-67
2023/11/07 09:07:39;;;;;;;4.33;1.80;;;10.60;99.90;;;;;;5023681;28;20074;-66
2023/11/07 09:10:06;;;;;;;5.63;1.60;;;10.60;99.90;;;;;;5023492;28;20783;-67
2023/11/07 09:12:32;;;;;;;3.28;1.83;;;10.60;99.90;;;;;;5021934;28;20028;-69
2023/11/07 09:14:59;;;;;;;2.65;1.50;;;10.70;99.90;;;;;;5028270;28;20026;-70
2023/11/07 09:17:24;;;;;;;4.97;1.60;;;10.80;99.90;;;;;;5024594;28;20500;-66
2023/11/07 09:19:50;;;;;;;3.03;1.60;;;10.80;99.90;;;;;;5018790;28;20060;-69
2023/11/07 09:22:16;;;;;;;3.77;1.87;;;10.80;99.90;;;;;;5023604;28;20041;-70
2023/11/07 09:24:41;;;;;;;4.13;1.90;;;10.80;99.90;;;;;;5026834;28;20121;-69
2023/11/07 09:27:07;;;;;;;6.80;1.77;;;11.00;99.90;;;;;;5024866;28;20112;-70
2023/11/07 09:29:39;;;;;;;4.60;1.70;;;11.10;99.90;;;;;;5027176;28;20549;-72
2023/11/07 09:32:07;;;;;;;6.22;1.67;;;11.40;99.90;;;;;;5023479;28;20051;-72
2023/11/07 09:34:33;;;;;;;6.15;1.70;;;11.50;99.90;;;;;;5025414;28;21518;-71
2023/11/07 09:36:59;;;;;;;11.55;1.95;;;11.50;99.90;;;;;;5023562;28;20460;-73
2023/11/07 09:39:28;;;;;;;7.43;1.95;;;11.60;99.90;;;;;;5032169;28;20064;-69
2023/11/07 09:41:54;;;;;;;3.88;1.08;;;11.60;99.90;;;;;;5018143;28;20788;-74
2023/11/07 09:44:20;;;;;;;3.10;1.20;;;11.70;98.40;;;;;;5029294;28;20042;-72
2023/11/07 09:46:48;;;;;;;2.50;1.20;;;11.80;96.80;;;;;;5026196;28;20041;-72
2023/11/07 09:49:14;;;;;;;7.57;1.38;;;11.90;96.10;;;;;;5007016;28;20505;-77
2023/11/07 09:51:40;;;;;;;2.53;1.13;;;12.00;96.30;;;;;;5022089;28;20080;-76
2023/11/07 09:54:09;;;;;;;3.88;1.10;;;12.00;95.50;;;;;;5021008;28;20292;-78
2023/11/07 09:56:39;;;;;;;4.45;1.02;;;12.00;95.90;;;;;;5023847;28;20033;-68
2023/11/07 09:59:43;;;;;;;2.70;1.27;;;12.00;95.10;;;;;;5026664;28;20360;-69
2023/11/07 10:02:09;;;;;;;1.17;0.85;;;12.10;94.20;;;;;;5026277;28;20041;-66
2023/11/07 10:04:36;;;;;;;9.50;1.40;;;12.30;94.60;;;;;;5025356;28;20049;-68
2023/11/07 10:07:02;;;;;;;5.18;0.95;;;12.40;94.20;;;;;;5027377;28;20131;-76
2023/11/07 10:09:29;;;;;;;1.70;0.95;;;12.40;94.70;;;;;;5016329;28;20532;-72
2023/11/07 10:11:56;;;;;;;3.00;0.80;;;12.40;93.80;;;;;;5026027;28;20037;-66
2023/11/07 10:14:22;;;;;;;6.00;1.00;;;12.40;92.00;;;;;;5028316;28;20405;-72
2023/11/07 10:16:53;;;;;;;1.27;0.80;;;12.30;91.40;;;;;;5019080;28;20148;-71
2023/11/07 10:19:22;;;;;;;5.13;1.20;;;12.40;90.30;;;;;;5029313;28;20045;-82
2023/11/07 10:21:49;;;;;;;1.67;0.95;;;12.40;90.30;;;;;;4111008;28;10000927;-83
2023/11/07 10:24:16;;;;;;;1.83;1.10;;;12.40;90.00;;;;;;4110345;28;10000630;-69
2023/11/07 10:29:25;;;;;;;6.25;1.75;;;12.60;90.30;;;;;;4696736;26;20117;-69
2023/11/07 10:32:02;;;;;;;3.28;0.70;;;12.50;87.60;;;;;;4959004;28;20505;-70
2023/11/07 10:34:28;;;;;;;;;;;12.60;88.70;;;;;;4982846;28;20038;-66
2023/11/07 10:36:54;;;;;;;1.48;0.60;;;12.70;88.50;;;;;;4972476;28;20364;-67
2023/11/07 10:39:25;;;;;;;0.80;0.50;;;12.90;86.60;;;;;;4980672;28;20034;-67
2023/11/07 10:41:51;;;;;;;2.83;1.00;;;12.90;87.00;;;;;;4974437;28;20064;-67
2023/11/07 10:44:33;;;;;;;2.05;0.75;;;12.80;85.50;;;;;;4934197;28;24531;-68
2023/11/07 10:47:03;;;;;;;0.73;0.50;;;12.80;87.40;;;;;;4953634;28;20047;-68
2023/11/07 10:49:30;;;;;;;2.35;0.55;;;12.70;86.60;;;;;;4985596;28;20118;-67
2023/11/07 10:52:00;;;;;;;4.75;0.85;;;12.80;86.70;;;;;;4979509;28;20109;-69
2023/11/07 10:54:30;;;;;;;1.05;0.80;;;12.90;87.00;;;;;;4978801;28;20122;-67
2023/11/07 10:57:09;;;;;;;1.50;0.82;;;13.20;88.60;;;;;;4975128;28;20453;-67
2023/11/07 10:59:36;;;;;;;5.25;1.40;;;13.30;86.30;;;;;;4980718;28;20035;-67
2023/11/07 11:02:03;;;;;;;1.27;0.60;;;13.20;84.40;;;;;;4983010;28;20026;-67
2023/11/07 11:04:34;;;;;;;4.40;1.40;;;13.10;84.40;;;;;;4983430;28;20085;-67
2023/11/07 11:07:06;;;;;;;1.88;0.85;;;13.10;84.70;;;;;;4978874;28;20050;-67
2023/11/07 11:09:33;;;;;;;1.60;0.80;;;13.20;87.10;;;;;;4979953;28;20034;-67
2023/11/07 11:12:02;;;;;;;0.80;0.80;;;13.40;84.60;;;;;;4979845;28;20030;-67
2023/11/07 11:14:27;;;;;;;1.75;0.70;;;13.40;83.90;;;;;;4980082;28;20747;-70
2023/11/07 11:17:19;;;;;;;0.90;0.60;;;13.20;84.60;;;;;;4985422;28;20113;-69
2023/11/07 11:19:59;;;;;;;2.05;0.85;;;12.90;83.90;;;;;;4955386;28;20027;-68
2023/11/07 11:22:47;;;;;;;1.35;0.70;;;12.60;84.00;;;;;;4975820;28;20039;-66
2023/11/07 11:25:39;;;;;;;0.57;0.40;;;12.60;84.30;;;;;;4978123;28;20059;-70
2023/11/07 11:28:05;;;;;;;1.58;0.73;;;12.60;82.30;;;;;;4980651;28;20572;-68
2023/11/07 11:30:35;;;;;;;1.67;0.90;;;12.70;84.30;;;;;;4981901;28;20113;-69
2023/11/07 11:33:09;;;;;;;2.92;0.80;;;12.90;85.00;;;;;;4974676;28;20031;-66
2023/11/07 11:35:44;;;;;;;0.82;0.60;;;12.90;83.40;;;;;;4975866;28;20022;-69
2023/11/07 11:38:23;;;;;;;0.77;0.50;;;13.00;83.20;;;;;;4977052;28;20076;-68
2023/11/07 11:40:52;;;;;;;1.15;0.50;;;13.00;84.20;;;;;;4977076;28;20064;-67
2023/11/07 11:43:20;;;;;;;4.68;0.50;;;13.00;81.70;;;;;;4981931;28;20502;-66
2023/11/07 11:45:50;;;;;;;1.08;0.47;;;13.00;84.00;;;;;;4982203;28;20126;-65
2023/11/07 11:48:18;;;;;;;3.67;0.80;;;13.10;82.20;;;;;;4976400;28;20026;-69
2023/11/07 11:50:45;;;;;;;0.73;0.57;;;12.90;83.10;;;;;;4977111;28;20031;-67
2023/11/07 11:53:31;;;;;;;1.33;0.70;;;12.80;81.90;;;;;;4974769;28;20042;-66
2023/11/07 11:55:59;;;;;;;1.60;0.68;;;12.80;82.50;;;;;;4979862;28;20061;-67
2023/11/07 11:58:31;;;;;;;3.15;1.30;;;12.70;82.60;;;;;;4975342;28;20749;-67
2023/11/07 12:01:00;;;;;;;3.65;0.70;;;12.70;84.30;;;;;;4978591;28;20084;-66
2023/11/07 12:03:35;;;;;;;2.80;0.60;;;12.60;85.00;;;;;;4981632;28;20516;-66
2023/11/07 12:06:02;;;;;;;0.73;0.52;;;12.50;83.90;;;;;;4977655;28;20416;-67
2023/11/07 12:08:32;;;;;;;1.23;0.60;;;12.60;83.60;;;;;;4974884;28;20018;-66
2023/11/07 12:10:58;;;;;;;0.43;0.40;;;12.70;83.90;;;;;;4979691;28;20750;-66
2023/11/07 12:13:24;;;;;;;1.00;0.68;;;12.80;82.50;;;;;;4978408;28;20030;-65
2023/11/07 12:15:51;;;;;;;0.73;0.40;;;13.00;81.10;;;;;;4976658;28;20089;-67
2023/11/07 12:18:21;;;;;;;;;;;13.20;82.30;;;;;;4976159;28;20556;-65
2023/11/07 12:20:46;;;;;;;0.63;0.40;;;13.20;79.70;;;;;;4974030;28;20005;-65
2023/11/07 12:23:12;;;;;;;0.60;0.60;;;13.30;82.00;;;;;;4975657;28;20138;-65
2023/11/07 12:25:50;;;;;;;0.55;0.47;;;13.40;85.50;;;;;;4980554;28;20113;-66
2023/11/07 12:28:15;;;;;;;2.72;0.85;;;13.50;85.00;;;;;;4974782;28;20224;-67
2023/11/07 12:30:41;;;;;;;1.70;0.43;;;13.60;85.40;;;;;;4984198;28;20568;-67
2023/11/07 12:33:08;;;;;;;0.83;0.37;;;13.60;81.20;;;;;;4980505;28;20022;-67
2023/11/07 12:35:35;;;;;;;0.52;0.45;;;13.60;81.00;;;;;;4980646;28;20570;-66
2023/11/07 12:38:07;;;;;;;1.67;0.55;;;13.60;82.90;;;;;;4983632;28;20023;-68
2023/11/07 12:40:35;;;;;;;3.03;0.70;;;13.60;81.40;;;;;;4980304;28;20053;-68
2023/11/07 12:43:01;;;;;;;4.57;0.50;;;13.50;82.40;;;;;;4979289;28;20070;-71
2023/11/07 12:45:31;;;;;;;0.68;0.47;;;13.50;80.60;;;;;;4995273;28;20053;-68
2023/11/07 12:48:03;;;;;;;2.08;0.50;;;13.60;81.00;;;;;;4981860;28;20026;-69
2023/11/07 12:50:33;;;;;;;3.20;0.38;;;13.70;81.10;;;;;;4966868;28;20033;-67
2023/11/07 12:53:04;;;;;;;0.82;0.60;;;13.60;79.30;;;;;;4984193;28;20486;-69
2023/11/07 12:55:34;;;;;;;0.90;0.50;;;13.60;80.20;;;;;;4976544;28;20627;-70
2023/11/07 12:58:00;;;;;;;1.65;0.70;;;13.60;78.60;;;;;;4979099;28;20030;-68